Time;durP1;ratioP1;P1;durP2;ratioP2;P2;SDS_P1;SDS_P2;PMS_P1;PMS_P2;Temp;Humidity;BMP_temperature;BMP_pressure;BME280_temperature;BME280_humidity;BME280_pressure;Samples;Min_cycle;Max_cycle;Signal;HPM_P1;HPM_P2
2022/02/03 00:02:50;;;;;;;204.38;88.17;;;;;;;-0.34;64.64;93696.27;1630113;86;21551;-47
2022/02/03 00:04:19;;;;;;;197.60;88.35;;;;;;;-0.24;64.41;93698.09;1634810;86;21440;-45
2022/02/03 00:06:58;;;;;;;191.03;87.42;;;;;;;-0.14;64.38;93699.88;1675441;84;21145;-47
2022/02/03 00:25:31;;;;;;;177.90;79.85;;;;;;;0.22;63.19;93733.59;1662237;86;20954;-46
2022/02/03 00:28:16;;;;;;;138.77;64.00;;;;;;;0.06;63.21;93738.81;1674897;84;21121;-46
2022/02/03 00:49:06;;;;;;;126.30;58.95;;;;;;;-0.06;64.38;93734.53;1664774;85;21128;-47
2022/02/03 00:51:34;;;;;;;129.38;60.30;;;;;;;-0.02;64.67;93740.66;1667626;85;21125;-46
2022/02/03 00:54:01;;;;;;;165.07;73.85;;;;;;;0.11;64.88;93756.53;1668016;85;21149;-46
2022/02/03 00:56:38;;;;;;;155.67;71.20;;;;;;;0.25;64.81;93761.77;1657402;85;21592;-46
2022/02/03 00:59:13;;;;;;;150.57;69.53;;;;;;;0.31;64.88;93766.33;1673259;84;21500;-45
2022/02/03 01:01:46;;;;;;;164.15;70.75;;;;;;;0.36;64.73;93765.09;1674012;84;21324;-47
2022/02/03 01:04:14;;;;;;;136.10;65.95;;;;;;;0.37;64.83;93775.52;1654280;85;21020;-46
2022/02/03 01:06:53;;;;;;;125.97;59.88;;;;;;;0.35;65.10;93764.91;1672853;84;21091;-46
2022/02/03 01:09:19;;;;;;;129.18;56.70;;;;;;;0.42;65.01;93766.94;1670745;84;21066;-46
2022/02/03 01:11:56;;;;;;;131.85;63.60;;;;;;;0.36;65.03;93764.52;1651298;85;21620;-47
2022/02/03 01:14:28;;;;;;;140.80;67.92;;;;;;;0.36;65.32;93766.44;1652835;84;21028;-46
2022/02/03 01:33:31;;;;;;;133.97;65.92;;;;;;;0.39;65.10;93771.81;1689890;83;21096;-48
2022/02/03 01:45:54;;;;;;;172.87;80.47;;;;;;;0.43;66.52;93794.77;1656920;85;21111;-46
2022/02/03 01:48:38;;;;;;;178.72;81.65;;;;;;;0.55;66.28;93807.76;1653504;85;20954;-46
2022/02/03 01:53:41;;;;;;;161.70;73.45;;;;;;;0.68;66.25;93812.21;1607855;86;21063;-45
2022/02/03 01:56:15;;;;;;;138.57;63.87;;;;;;;0.73;65.80;93818.52;1646951;86;20970;-47
2022/02/03 01:58:50;;;;;;;147.40;72.62;;;;;;;0.69;65.59;93821.08;1681995;84;21315;-45
2022/02/03 02:01:25;;;;;;;138.15;66.82;;;;;;;0.62;65.72;93827.34;1699226;83;21019;-46
2022/02/03 02:04:17;;;;;;;132.72;64.85;;;;;;;0.49;65.85;93816.91;1701006;84;21906;-46
2022/02/03 02:07:13;;;;;;;125.72;60.75;;;;;;;0.43;66.30;93826.63;1697136;84;21055;-46
2022/02/03 02:13:35;;;;;;;149.95;72.60;;;;;;;0.44;66.42;93832.81;1696453;82;21007;-45
2022/02/03 02:16:50;;;;;;;158.03;74.72;;;;;;;0.40;66.84;93836.16;1697231;83;20959;-46
2022/02/03 02:18:49;;;;;;;142.53;68.07;;;;;;;0.53;66.75;93848.73;1665805;83;21187;-46
2022/02/03 02:38:40;;;;;;;146.53;69.42;;;;;;;1.07;66.60;93846.27;1671007;84;21716;-48
2022/02/03 02:44:09;;;;;;;121.20;59.03;;;;;;;1.21;66.57;93859.61;1690798;83;20956;-46
2022/02/03 02:46:47;;;;;;;110.05;54.58;;;;;;;1.22;66.61;93858.44;1679967;83;21499;-46
2022/02/03 02:49:45;;;;;;;137.50;63.05;;;;;;;1.29;66.28;93855.62;1705879;82;21471;-46
2022/02/03 02:52:11;;;;;;;135.05;61.58;;;;;;;1.30;66.07;93856.39;1691479;82;20962;-46
2022/02/03 02:55:14;;;;;;;143.55;67.78;;;;;;;1.19;66.15;93861.19;1704064;82;21419;-46
2022/02/03 03:00:46;;;;;;;189.35;81.10;;;;;;;1.05;66.64;93866.23;1688996;82;21157;-46
2022/02/03 03:31:02;;;;;;;127.00;59.50;;;;;;;1.56;65.56;93887.53;1652481;85;20988;-47
2022/02/03 03:35:59;;;;;;;150.57;71.35;;;;;;;1.31;65.68;93901.27;1655931;85;21527;-46
2022/02/03 03:38:30;;;;;;;158.40;76.05;;;;;;;1.22;65.71;93907.77;1637315;86;21109;-46
2022/02/03 03:40:57;;;;;;;154.40;75.50;;;;;;;1.07;65.81;93906.42;1669801;84;21409;-45
2022/02/03 03:43:43;;;;;;;168.80;79.67;;;;;;;0.92;66.17;93903.73;1669118;85;21030;-47
2022/02/03 03:46:18;;;;;;;163.05;77.08;;;;;;;0.87;66.65;93902.24;1652084;85;21607;-46
2022/02/03 03:49:08;;;;;;;163.90;79.55;;;;;;;0.91;66.78;93906.23;1655487;84;21000;-46
2022/02/03 03:51:53;;;;;;;151.65;73.47;;;;;;;0.97;66.94;93904.03;1645747;85;21564;-45
2022/02/03 03:54:31;;;;;;;151.65;70.67;;;;;;;1.08;67.37;93906.02;1648775;85;21811;-46
2022/02/03 03:56:57;;;;;;;132.05;65.10;;;;;;;1.26;66.89;93905.19;1673918;84;21068;-46
2022/02/03 03:59:51;;;;;;;130.97;65.87;;;;;;;1.35;66.55;93904.09;1657500;84;21067;-46
2022/02/03 04:34:34;;;;;;;71.62;42.40;;;;;;;1.29;66.17;93951.02;1672232;84;21085;-46
2022/02/03 05:07:15;;;;;;;65.15;36.88;;;;;;;1.19;68.32;94002.81;1598363;86;22189;-45
2022/02/03 05:10:12;;;;;;;56.45;31.05;;;;;;;1.35;67.79;94011.09;1654965;85;21005;-49
2022/02/03 05:13:26;;;;;;;57.40;32.23;;;;;;;1.37;67.59;94018.26;1622255;86;21650;-45
2022/02/03 05:19:30;;;;;;;74.87;44.10;;;;;;;1.41;67.90;94038.52;1670391;85;20961;-46
2022/02/03 05:22:50;;;;;;;68.85;41.02;;;;;;;1.46;67.91;94051.60;1643777;87;21177;-46
2022/02/03 05:32:07;;;;;;;76.47;39.50;;;;;;;1.74;67.47;94054.75;1692817;84;21538;-49
2022/02/03 05:43:41;;;;;;;78.25;46.00;;;;;;;1.83;67.56;94084.25;1700093;82;21037;-45
2022/02/03 05:51:44;;;;;;;52.53;29.12;;;;;;;1.69;68.08;94097.20;1696403;82;21171;-47
2022/02/03 06:07:41;;;;;;;48.05;29.48;;;;;;;1.63;68.79;94136.77;1614544;86;21040;-47
2022/02/03 06:15:11;;;;;;;122.62;64.80;;;;;;;1.29;69.45;94148.78;1645448;85;20990;-46
2022/02/03 06:20:41;;;;;;;125.85;68.67;;;;;;;1.24;69.67;94156.75;1668970;84;21129;-47
2022/02/03 06:20:42;;;;;;;89.15;49.15;;;;;;;1.19;69.72;94158.55;1676932;83;21016;-47
2022/02/03 06:23:13;;;;;;;104.50;57.35;;;;;;;1.19;70.12;94169.95;1670154;85;21000;-47
2022/02/03 06:28:22;;;;;;;91.82;51.77;;;;;;;1.14;70.63;94179.88;1656257;84;21524;-49
2022/02/03 06:30:49;;;;;;;77.60;44.90;;;;;;;1.29;70.78;94183.39;1662632;84;21281;-47
2022/02/03 06:33:15;;;;;;;57.48;34.48;;;;;;;1.48;70.40;94188.84;1649753;84;21016;-50
2022/02/03 06:35:42;;;;;;;70.83;39.65;;;;;;;1.63;70.03;94189.62;1652205;84;20991;-49
2022/02/03 06:38:09;;;;;;;204.50;98.60;;;;;;;1.77;69.47;94184.81;1650005;85;21086;-47
2022/02/03 06:40:35;;;;;;;137.15;68.28;;;;;;;1.90;68.92;94199.96;1681254;84;21484;-48
2022/02/03 06:43:03;;;;;;;64.80;35.13;;;;;;;1.90;68.64;94202.67;1678008;82;22372;-48
2022/02/03 06:45:41;;;;;;;28.75;18.45;;;;;;;1.91;65.99;94209.63;1675474;84;21084;-49
2022/02/03 06:48:04;;;;;;;16.75;12.10;;;;;;;1.81;63.64;94220.03;1663977;83;21482;-50
2022/02/03 06:50:37;;;;;;;11.08;8.40;;;;;;;1.71;62.51;94221.50;1636351;83;21025;-48
2022/02/03 06:53:04;;;;;;;13.93;11.15;;;;;;;1.63;61.11;94234.36;1659148;82;21057;-47
2022/02/03 06:58:10;;;;;;;30.88;21.27;;;;;;;1.70;60.56;94246.47;1648676;84;21016;-51
2022/02/03 07:00:42;;;;;;;23.42;17.20;;;;;;;1.73;58.79;94245.09;1662092;83;21143;-48
2022/02/03 07:03:16;;;;;;;16.32;12.18;;;;;;;1.84;58.15;94255.25;1648857;84;21026;-50
2022/02/03 07:05:34;;;;;;;41.40;24.25;;;;;;;1.99;56.81;94251.79;1620393;86;21116;-50
2022/02/03 07:08:01;;;;;;;21.80;15.60;;;;;;;2.01;55.98;94257.00;1639270;85;22408;-51
2022/02/03 07:10:28;;;;;;;23.15;15.38;;;;;;;2.08;55.10;94266.98;1651217;85;21067;-48
2022/02/03 07:12:58;;;;;;;28.75;20.82;;;;;;;2.07;54.93;94261.37;1669585;83;21036;-48
2022/02/03 07:15:25;;;;;;;20.05;14.78;;;;;;;2.03;55.22;94260.65;1647523;85;21542;-47
2022/02/03 07:17:54;;;;;;;24.82;15.72;;;;;;;2.11;54.55;94275.09;1682431;83;21052;-48
2022/02/03 07:20:24;;;;;;;25.37;15.70;;;;;;;2.19;54.32;94276.56;1681649;84;21079;-49
2022/02/03 07:22:49;;;;;;;31.05;19.05;;;;;;;2.23;53.57;94271.08;1648629;85;21007;-49
2022/02/03 07:25:16;;;;;;;20.72;14.30;;;;;;;2.20;53.45;94282.74;1663964;83;21145;-50
2022/02/03 07:27:44;;;;;;;22.77;14.35;;;;;;;2.19;53.32;94281.98;1684267;83;21018;-48
2022/02/03 07:30:13;;;;;;;20.97;14.50;;;;;;;2.22;53.69;94290.67;1682706;84;21061;-47
2022/02/03 07:32:41;;;;;;;28.00;18.98;;;;;;;2.09;54.11;94292.93;1675627;84;21746;-49
2022/02/03 07:35:09;;;;;;;16.00;11.25;;;;;;;1.93;54.44;94288.07;1671922;84;21055;-51
2022/02/03 07:37:44;;;;;;;15.48;11.57;;;;;;;1.91;54.37;94296.41;1651193;85;21613;-52
2022/02/03 07:40:11;;;;;;;20.23;13.78;;;;;;;1.88;54.61;94298.01;1651120;85;21084;-54
2022/02/03 07:42:39;;;;;;;21.35;13.93;;;;;;;1.93;54.77;94297.56;1618661;86;20933;-47
2022/02/03 07:45:07;;;;;;;30.88;19.45;;;;;;;2.03;54.89;94304.83;1637905;85;21136;-52
2022/02/03 07:47:34;;;;;;;22.85;14.83;;;;;;;2.10;55.04;94304.75;1638874;84;21012;-52
2022/02/03 07:50:00;;;;;;;21.37;14.45;;;;;;;2.20;55.03;94312.59;1605786;85;21020;-47
2022/02/03 07:52:27;;;;;;;33.90;20.60;;;;;;;2.30;55.14;94312.47;1650333;85;21068;-49
2022/02/03 07:54:54;;;;;;;44.33;25.90;;;;;;;2.37;55.14;94317.84;1667302;82;21101;-49
2022/02/03 07:57:22;;;;;;;23.35;16.10;;;;;;;2.34;55.07;94323.30;1666718;83;22164;-51
2022/02/03 07:59:49;;;;;;;20.85;15.85;;;;;;;2.31;55.42;94318.67;1625448;85;21133;-49
2022/02/03 08:02:15;;;;;;;24.40;17.07;;;;;;;2.25;55.62;94331.13;1659406;85;21042;-50
2022/02/03 08:04:46;;;;;;;17.17;12.80;;;;;;;2.09;56.32;94328.20;1620703;86;21051;-50
2022/02/03 08:07:14;;;;;;;22.35;15.15;;;;;;;1.95;57.90;94329.72;1638140;84;21053;-52
2022/02/03 08:09:54;;;;;;;19.02;16.25;;;;;;;1.85;58.41;94330.57;1652081;84;21176;-48
2022/02/03 08:12:12;;;;;;;22.87;16.95;;;;;;;1.82;59.46;94349.00;1650377;83;21061;-53
2022/02/03 08:14:44;;;;;;;26.70;18.05;;;;;;;1.93;59.75;94345.63;1680767;83;21059;-52
2022/02/03 08:17:14;;;;;;;26.75;15.25;;;;;;;2.09;59.59;94349.89;1681111;84;20971;-52
2022/02/03 08:19:46;;;;;;;18.55;12.10;;;;;;;2.16;58.80;94362.05;1653225;84;21055;-51
2022/02/03 08:22:21;;;;;;;13.98;10.40;;;;;;;2.12;58.79;94353.94;1645566;84;21181;-57
2022/02/03 08:24:51;;;;;;;22.62;14.78;;;;;;;2.01;58.99;94362.00;1666615;82;21149;-50
2022/02/03 08:27:38;;;;;;;41.83;25.15;;;;;;;1.94;59.36;94364.19;1653165;83;21090;-52
2022/02/03 08:30:21;;;;;;;19.00;13.88;;;;;;;1.93;59.74;94365.96;1666828;84;21559;-50
2022/02/03 08:32:37;;;;;;;30.10;19.30;;;;;;;1.97;60.28;94374.23;1657648;84;21112;-51
2022/02/03 08:38:18;;;;;;;11.33;8.33;;;;;;;2.24;60.04;94383.86;1680262;83;21027;-48
2022/02/03 08:40:08;;;;;;;11.53;8.65;;;;;;;2.20;59.56;94392.63;1657522;84;21042;-51
2022/02/03 08:42:27;;;;;;;18.60;12.63;;;;;;;2.11;59.85;94397.77;1685132;83;21591;-49
2022/02/03 08:44:53;;;;;;;9.38;7.58;;;;;;;2.07;60.29;94410.56;1671703;83;21111;-48
2022/02/03 08:47:20;;;;;;;13.75;8.10;;;;;;;2.00;60.35;94399.19;1679011;83;21726;-48
2022/02/03 08:49:47;;;;;;;12.05;9.28;;;;;;;1.95;60.64;94397.52;1643548;85;21118;-51
2022/02/03 08:52:18;;;;;;;21.90;14.87;;;;;;;1.98;60.88;94394.75;1614146;86;21051;-48
2022/02/03 08:54:59;;;;;;;14.33;10.03;;;;;;;2.08;60.82;94397.19;1613081;86;21805;-50
2022/02/03 08:57:21;;;;;;;11.38;10.18;;;;;;;2.35;59.70;94398.11;1643415;85;21699;-48
2022/02/03 09:00:15;;;;;;;11.95;7.45;;;;;;;2.56;57.44;94404.09;1654086;85;21157;-49
2022/02/03 09:35:38;;;;;;;15.75;12.23;;;;;;;2.02;59.03;94444.34;1644745;84;20213;-50
2022/02/03 09:41:01;;;;;;;25.62;12.43;;;;;;;2.19;59.04;94453.49;1647557;84;21378;-50
2022/02/03 09:58:41;;;;;;;5.78;5.20;;;;;;;3.97;47.80;94443.96;1638022;83;21622;-48
2022/02/03 10:01:10;;;;;;;5.45;4.95;;;;;;;4.80;46.38;94434.77;1684760;83;21202;-53
2022/02/03 10:06:23;;;;;;;20.68;12.25;;;;;;;5.75;43.50;94435.73;1690469;83;21135;-55
2022/02/03 10:08:53;;;;;;;7.70;6.20;;;;;;;6.18;40.48;94445.88;1633381;85;22248;-54
2022/02/03 10:11:26;;;;;;;24.43;15.80;;;;;;;6.45;41.37;94432.72;1633504;86;21595;-52
2022/02/03 10:14:01;;;;;;;36.80;27.13;;;;;;;6.62;40.25;94438.34;1629981;86;21049;-54
2022/02/03 10:16:36;;;;;;;6.92;6.28;;;;;;;6.70;41.02;94434.25;1634324;85;22552;-54
2022/02/03 10:19:20;;;;;;;18.77;14.33;;;;;;;6.38;39.68;94443.25;1641259;85;21103;-52
2022/02/03 10:21:48;;;;;;;28.10;23.22;;;;;;;5.76;41.22;94442.73;1610790;86;21182;-58
2022/02/03 10:24:18;;;;;;;21.02;18.62;;;;;;;5.27;42.19;94456.79;1622960;87;21534;-51
2022/02/03 10:26:48;;;;;;;31.70;24.65;;;;;;;5.04;42.42;94463.50;1651691;83;21119;-49
2022/02/03 10:29:26;;;;;;;20.15;15.58;;;;;;;4.83;43.40;94463.30;1674618;83;21441;-52
2022/02/03 10:31:52;;;;;;;16.25;12.98;;;;;;;4.74;44.07;94468.53;1632950;85;21149;-52
2022/02/03 10:34:30;;;;;;;10.20;9.13;;;;;;;4.74;44.33;94461.72;1593738;86;21049;-50
2022/02/03 10:45:13;;;;;;;6.00;5.10;;;;;;;4.45;43.62;94474.28;1631103;85;22295;-52
2022/02/03 10:58:56;;;;;;;8.28;7.17;;;;;;;3.46;45.63;94480.84;1634370;85;21166;-52
2022/02/03 11:03:31;;;;;;;9.75;8.80;;;;;;;3.47;45.45;94485.09;1688489;83;20995;-48
2022/02/03 11:06:05;;;;;;;6.20;5.67;;;;;;;3.37;45.24;94488.13;1685000;83;21132;-51
2022/02/03 11:08:35;;;;;;;19.60;14.68;;;;;;;3.30;45.40;94487.44;1678244;83;21154;-48
2022/02/03 11:11:00;;;;;;;7.80;5.50;;;;;;;3.41;45.73;94485.38;1692288;83;21843;-52
2022/02/03 11:13:30;;;;;;;10.10;9.07;;;;;;;3.38;44.64;94482.12;1636041;85;20977;-53
2022/02/03 11:16:03;;;;;;;15.60;11.20;;;;;;;3.38;44.64;94482.12;1649210;85;21432;-49
2022/02/03 11:18:33;;;;;;;7.80;6.10;;;;;;;3.30;44.98;94483.36;1681484;83;21056;-48
2022/02/03 11:21:00;;;;;;;10.82;6.90;;;;;;;3.25;44.01;94489.26;1678482;83;21063;-53
2022/02/03 11:26:16;;;;;;;7.62;6.95;;;;;;;2.96;44.79;94488.81;1669625;83;21007;-50
2022/02/03 11:40:12;;;;;;;6.42;5.78;;;;;;;3.06;45.52;94486.55;1683127;83;21495;-50
2022/02/03 11:42:53;;;;;;;6.67;6.08;;;;;;;3.26;44.42;94475.84;1652845;84;21251;-53
2022/02/03 11:48:44;;;;;;;10.15;9.08;;;;;;;3.45;43.49;94492.89;1659820;84;21085;-47
2022/02/03 11:59:42;;;;;;;5.60;4.95;;;;;;;4.11;43.72;94481.07;1688832;83;21036;-53
2022/02/03 12:01:34;;;;;;;9.93;8.43;;;;;;;4.28;42.44;94478.66;1657902;83;21550;-53
2022/02/03 12:18:33;;;;;;;15.48;9.73;;;;;;;3.38;43.31;94491.63;1676809;84;21046;-50
2022/02/03 12:20:55;;;;;;;;;;;;;;;;;;;;;
2022/02/03 12:26:29;;;;;;;13.70;9.45;;;;;;;2.91;46.72;94495.27;1682591;83;21012;-51
2022/02/03 12:29:04;;;;;;;11.22;7.65;;;;;;;2.84;47.12;94511.65;1660614;83;21130;-51
2022/02/03 12:37:05;;;;;;;6.92;6.22;;;;;;;2.72;46.32;94504.00;1650726;85;21119;-53
2022/02/03 12:39:53;;;;;;;11.70;7.70;;;;;;;2.77;46.21;94504.91;1636758;85;21109;-50
2022/02/03 12:43:13;;;;;;;6.85;6.10;;;;;;;2.84;47.07;94511.65;1615170;86;21081;-48
2022/02/03 12:44:47;;;;;;;8.13;6.70;;;;;;;2.94;46.97;94512.11;1648131;85;21143;-51
2022/02/03 12:47:14;;;;;;;10.40;7.58;;;;;;;3.00;46.83;94517.28;1662526;83;21532;-52
2022/02/03 12:49:41;;;;;;;10.25;7.53;;;;;;;2.90;46.77;94507.31;1653715;84;21054;-50
2022/02/03 12:52:21;;;;;;;9.25;7.55;;;;;;;2.86;47.43;94516.09;1688749;83;21540;-49
2022/02/03 12:54:50;;;;;;;7.62;6.50;;;;;;;2.83;47.26;94514.19;1639732;85;21069;-49
2022/02/03 12:57:35;;;;;;;11.08;7.55;;;;;;;2.84;46.79;94512.41;1645469;85;21077;-51
2022/02/03 13:00:29;;;;;;;8.18;6.90;;;;;;;2.96;46.86;94505.69;1631325;84;21065;-50
2022/02/03 13:02:55;;;;;;;8.65;7.10;;;;;;;3.28;46.74;94502.03;1670105;83;21579;-50
2022/02/03 13:05:27;;;;;;;8.15;6.58;;;;;;;4.26;45.06;94508.26;1688035;84;21101;-50
2022/02/03 13:07:56;;;;;;;8.75;6.75;;;;;;;5.39;42.19;94500.42;1682641;83;21491;-50
2022/02/03 13:10:26;;;;;;;8.20;6.70;;;;;;;6.16;41.34;94500.91;1647366;82;21185;-48
2022/02/03 13:13:00;;;;;;;8.55;6.95;;;;;;;6.96;39.84;94504.25;1680351;84;20999;-50
2022/02/03 13:15:36;;;;;;;10.78;7.47;;;;;;;7.66;38.19;94505.87;1657193;82;21116;-52
2022/02/03 13:18:08;;;;;;;6.90;6.08;;;;;;;8.17;37.77;94505.52;1674168;84;21076;-49
2022/02/03 13:20:47;;;;;;;10.30;9.15;;;;;;;8.65;36.08;94507.20;1676481;83;21134;-52
2022/02/03 13:23:14;;;;;;;7.85;6.35;;;;;;;8.51;35.65;94502.94;1648764;84;21186;-53
2022/02/03 13:25:56;;;;;;;7.75;5.75;;;;;;;8.05;36.14;94506.27;1689280;81;21084;-51
2022/02/03 13:28:25;;;;;;;9.43;5.17;;;;;;;7.52;36.78;94515.84;1690362;83;21279;-50
2022/02/03 13:31:01;;;;;;;5.20;4.60;;;;;;;6.93;37.35;94514.69;1658258;83;21171;-53
2022/02/03 13:33:28;;;;;;;14.35;12.82;;;;;;;6.42;38.14;94513.59;1664240;82;21096;-53
2022/02/03 13:35:57;;;;;;;12.98;9.15;;;;;;;6.07;38.60;94513.03;1667286;83;21837;-49
2022/02/03 13:38:43;;;;;;;66.15;46.05;;;;;;;5.79;39.27;94523.79;1672448;81;21148;-51
2022/02/03 13:41:07;;;;;;;12.85;10.32;;;;;;;5.50;39.74;94524.93;1694341;81;21096;-53
2022/02/03 13:43:40;;;;;;;10.68;9.23;;;;;;;5.27;39.49;94526.94;1673137;83;21061;-58
2022/02/03 13:46:08;;;;;;;7.12;6.42;;;;;;;5.34;40.02;94522.13;1672528;85;21047;-50
2022/02/03 13:48:37;;;;;;;6.10;5.50;;;;;;;5.95;38.66;94527.94;1675184;83;21138;-51
2022/02/03 13:51:09;;;;;;;8.03;6.37;;;;;;;6.44;38.00;94522.13;1680603;82;20996;-51
2022/02/03 13:53:41;;;;;;;4.75;4.35;;;;;;;6.28;37.11;94525.42;1658590;84;21122;-51
2022/02/03 14:21:06;;;;;;;22.58;14.15;;;;;;;3.32;41.48;94546.25;1667407;84;21023;-51
2022/02/03 14:29:16;;;;;;;76.45;31.42;;;;;;;3.07;42.39;94553.30;1670484;83;21187;-49
2022/02/03 14:31:41;;;;;;;29.27;16.60;;;;;;;2.97;42.67;94565.06;1650038;84;21024;-49
2022/02/03 14:34:22;;;;;;;21.87;12.40;;;;;;;2.93;42.85;94563.55;1654275;85;21065;-51
2022/02/03 14:36:45;;;;;;;21.37;12.75;;;;;;;2.82;43.24;94568.30;1668256;84;21056;-49
2022/02/03 14:39:25;;;;;;;14.85;10.05;;;;;;;2.77;43.51;94570.88;1684234;84;21898;-49
2022/02/03 14:41:48;;;;;;;10.03;7.08;;;;;;;2.69;43.83;94577.53;1640921;85;21343;-49
2022/02/03 14:44:17;;;;;;;16.97;10.93;;;;;;;2.55;44.04;94580.95;1650234;83;21091;-50
2022/02/03 14:46:44;;;;;;;39.78;21.40;;;;;;;2.38;44.40;94579.14;1676752;84;21110;-53
2022/02/03 14:49:11;;;;;;;30.72;16.65;;;;;;;2.38;44.62;94581.85;1635382;84;22117;-51
2022/02/03 14:51:55;;;;;;;50.52;25.17;;;;;;;2.36;44.60;94576.81;1640797;85;21063;-52
2022/02/03 14:59:20;;;;;;;61.85;30.35;;;;;;;2.00;45.22;94585.59;1613439;86;21004;-52
2022/02/03 15:01:46;;;;;;;41.05;21.97;;;;;;;1.96;45.49;94582.89;1622077;86;21084;-51
2022/02/03 15:04:21;;;;;;;25.45;13.00;;;;;;;2.01;45.29;94587.92;1620564;86;21050;-51
2022/02/03 15:06:50;;;;;;;10.13;8.68;;;;;;;2.01;44.80;94587.92;1620522;86;21110;-51
2022/02/03 15:09:19;;;;;;;20.95;12.68;;;;;;;1.84;44.62;94589.36;1662814;84;21027;-50
2022/02/03 15:11:56;;;;;;;34.60;25.23;;;;;;;1.61;45.26;94591.80;1645204;84;21016;-52
2022/02/03 15:14:08;;;;;;;22.87;14.58;;;;;;;1.54;45.61;94586.98;1641167;85;21060;-50
2022/02/03 15:16:35;;;;;;;12.05;10.20;;;;;;;1.48;45.74;94582.55;1653367;84;21050;-50
2022/02/03 15:19:02;;;;;;;30.43;26.35;;;;;;;1.35;45.81;94593.62;1669625;83;21136;-51
2022/02/03 15:21:29;;;;;;;100.18;53.58;;;;;;;1.35;45.96;94588.20;1669447;83;20979;-53
2022/02/03 15:23:56;;;;;;;23.45;17.77;;;;;;;1.31;46.22;94592.11;1689427;84;21524;-51
2022/02/03 15:26:23;;;;;;;19.60;12.68;;;;;;;1.25;46.52;94592.30;1635148;85;21081;-49
2022/02/03 15:28:50;;;;;;;52.20;26.97;;;;;;;1.22;46.12;94589.81;1674886;82;21493;-55
2022/02/03 15:31:19;;;;;;;57.88;31.20;;;;;;;1.20;46.58;94594.85;1665410;83;21104;-51
2022/02/03 15:33:54;;;;;;;44.42;25.72;;;;;;;1.14;46.70;94595.63;1660095;83;21074;-48
2022/02/03 15:36:14;;;;;;;18.60;12.82;;;;;;;1.18;46.63;94599.09;1671282;83;20986;-49
2022/02/03 15:38:47;;;;;;;28.32;19.73;;;;;;;1.29;46.36;94603.33;1670709;82;21051;-48
2022/02/03 15:41:19;;;;;;;22.95;15.15;;;;;;;1.45;46.34;94607.73;1683356;82;21089;-50
2022/02/03 15:43:41;;;;;;;28.10;18.52;;;;;;;1.59;46.34;94600.91;1668351;84;21177;-50
2022/02/03 15:46:07;;;;;;;30.57;19.50;;;;;;;1.64;46.50;94607.27;1620120;87;21018;-50
2022/02/03 15:48:49;;;;;;;42.30;26.02;;;;;;;1.68;46.49;94603.95;1605610;84;21004;-50
2022/02/03 15:56:11;;;;;;;41.92;23.83;;;;;;;1.66;46.46;94603.58;1666434;84;21015;-50
2022/02/03 16:01:45;;;;;;;42.10;21.37;;;;;;;1.91;46.33;94608.30;1660642;84;21739;-52
2022/02/03 16:17:39;;;;;;;321.65;132.78;;;;;;;1.76;47.44;94602.77;1689479;83;20965;-50
2022/02/03 16:20:12;;;;;;;225.13;105.32;;;;;;;1.69;47.06;94606.09;1695497;82;21100;-48
2022/02/03 16:22:45;;;;;;;167.10;91.60;;;;;;;1.57;47.26;94603.24;1675069;83;21172;-49
2022/02/03 16:25:35;;;;;;;168.78;90.40;;;;;;;1.39;47.19;94611.23;1658734;84;21024;-51
2022/02/03 16:54:44;;;;;;;55.80;27.87;;;;;;;1.50;49.93;94619.52;1681236;82;21228;-50
2022/02/03 16:57:14;;;;;;;33.35;18.52;;;;;;;1.43;49.72;94616.84;1669573;84;20979;-49
2022/02/03 16:59:49;;;;;;;29.05;16.20;;;;;;;1.33;49.57;94614.91;1678733;84;21102;-49
2022/02/03 17:02:09;;;;;;;24.67;14.03;;;;;;;1.16;49.49;94615.73;1663482;85;21617;-50
2022/02/03 17:04:39;;;;;;;18.17;11.50;;;;;;;0.97;49.97;94617.51;1676727;84;21061;-49
2022/02/03 17:07:07;;;;;;;16.27;10.82;;;;;;;0.86;50.19;94607.30;1646067;85;21013;-51
2022/02/03 17:09:38;;;;;;;16.27;10.48;;;;;;;0.77;50.19;94610.95;1652371;85;21010;-50
2022/02/03 17:12:06;;;;;;;24.65;15.50;;;;;;;0.71;50.19;94614.44;1650206;84;21027;-50
2022/02/03 17:14:34;;;;;;;38.17;24.07;;;;;;;0.59;50.56;94625.08;1694543;84;21463;-50
2022/02/03 17:17:00;;;;;;;122.42;61.75;;;;;;;0.58;50.84;94610.59;1688191;85;21472;-50
2022/02/03 17:19:27;;;;;;;121.85;64.40;;;;;;;0.54;51.61;94624.12;1670410;85;21440;-51
2022/02/03 17:21:54;;;;;;;107.70;58.90;;;;;;;0.47;51.63;94613.30;1688159;85;21031;-50
2022/02/03 17:24:20;;;;;;;122.55;69.95;;;;;;;0.36;51.59;94612.52;1685733;84;22522;-50
2022/02/03 17:27:00;;;;;;;112.80;64.30;;;;;;;0.16;51.81;94603.78;1673962;85;21810;-50
2022/02/03 17:29:37;;;;;;;119.80;67.08;;;;;;;0.09;51.68;94607.28;1629046;85;21811;-50
2022/02/03 17:32:06;;;;;;;152.60;79.82;;;;;;;0.00;51.74;94614.22;1646196;86;21198;-50
2022/02/03 17:54:35;;;;;;;82.78;50.88;;;;;;;-0.78;54.39;94626.46;1638412;85;21218;-52
2022/02/03 18:10:08;;;;;;;103.27;53.13;;;;;;;-1.40;55.79;94627.59;1617390;85;21004;-49
2022/02/03 18:55:42;;;;;;;177.62;86.05;;;;;;;-2.25;57.30;94632.03;1666491;85;21063;-50
2022/02/03 18:58:14;;;;;;;132.18;68.83;;;;;;;-2.25;57.41;94633.94;1661224;85;21060;-52
2022/02/03 19:09:24;;;;;;;106.60;53.80;;;;;;;-2.31;57.17;94632.72;1663441;85;20984;-50
2022/02/03 19:25:50;;;;;;;199.95;90.15;;;;;;;-2.79;57.71;94625.05;1575244;90;21441;-49
2022/02/03 20:08:32;;;;;;;368.30;153.02;;;;;;;-3.83;59.97;94632.92;1645968;85;21153;-50
2022/02/03 20:10:53;;;;;;;313.35;131.15;;;;;;;-3.81;59.88;94637.36;1661748;84;21530;-49
2022/02/03 20:13:20;;;;;;;309.87;133.07;;;;;;;-3.81;60.00;94636.81;1664868;84;21249;-49
2022/02/03 20:15:48;;;;;;;242.82;103.55;;;;;;;-3.78;59.72;94636.64;1633547;85;21075;-50
2022/02/03 20:18:17;;;;;;;263.15;112.68;;;;;;;-3.78;59.87;94627.23;1651716;85;21060;-49
2022/02/03 20:20:43;;;;;;;267.52;114.97;;;;;;;-3.85;60.08;94629.81;1611898;87;21822;-49
2022/02/03 20:23:16;;;;;;;249.25;109.10;;;;;;;-3.88;60.21;94627.85;1658527;86;21079;-49
2022/02/03 20:25:49;;;;;;;253.35;108.97;;;;;;;-3.86;60.63;94630.95;1654784;85;21067;-50
2022/02/03 20:28:13;;;;;;;219.62;94.85;;;;;;;-3.86;60.78;94633.06;1632162;86;21060;-50
2022/02/03 20:30:40;;;;;;;224.80;102.35;;;;;;;-3.86;60.48;94624.23;1643157;86;20957;-50
2022/02/03 20:33:07;;;;;;;187.05;85.15;;;;;;;-3.96;60.79;94628.85;1610163;87;21515;-49
2022/02/03 20:35:34;;;;;;;228.58;98.97;;;;;;;-3.89;60.97;94634.36;1601279;88;21142;-50
2022/02/03 20:38:00;;;;;;;219.95;92.35;;;;;;;-3.90;60.44;94634.16;1667534;85;21073;-49
2022/02/03 20:40:27;;;;;;;258.20;113.20;;;;;;;-3.95;60.76;94629.06;1653350;83;21070;-49
2022/02/03 20:42:54;;;;;;;251.25;106.45;;;;;;;-3.88;60.83;94633.98;1669808;85;21033;-50
2022/02/03 20:45:21;;;;;;;223.90;95.15;;;;;;;-3.78;60.53;94629.92;1667642;85;21109;-48
2022/02/03 20:47:47;;;;;;;312.77;118.75;;;;;;;-3.72;60.53;94624.47;1657078;85;21153;-49
2022/02/03 20:50:17;;;;;;;217.20;93.82;;;;;;;-3.57;60.50;94622.39;1652673;85;20996;-50
2022/02/03 20:52:43;;;;;;;229.32;97.82;;;;;;;-3.53;59.82;94623.05;1665683;85;21552;-49
2022/02/03 20:55:09;;;;;;;222.50;95.07;;;;;;;-3.68;59.98;94619.34;1654507;85;21027;-49
2022/02/03 20:57:36;;;;;;;231.45;103.67;;;;;;;-3.81;60.12;94622.58;1659573;85;21961;-49
2022/02/03 21:02:46;;;;;;;301.77;129.23;;;;;;;-4.19;60.54;94625.39;1660705;85;21590;-49
2022/02/03 21:05:16;;;;;;;267.00;117.97;;;;;;;-4.29;60.99;94613.33;1648991;85;21238;-48
2022/02/03 21:07:45;;;;;;;287.88;124.10;;;;;;;-4.38;61.27;94624.09;1665802;85;21041;-49
2022/02/03 21:10:17;;;;;;;255.43;113.92;;;;;;;-4.42;61.61;94619.98;1652701;85;21148;-50
2022/02/03 21:12:44;;;;;;;243.55;104.45;;;;;;;-4.41;61.80;94618.09;1623110;85;21028;-49
2022/02/03 21:15:13;;;;;;;186.73;83.47;;;;;;;-4.42;61.94;94613.86;1660288;85;21561;-49
2022/02/03 21:17:40;;;;;;;168.62;78.72;;;;;;;-4.33;61.91;94619.77;1628535;85;20988;-50
2022/02/03 21:20:15;;;;;;;143.75;67.12;;;;;;;-4.29;61.74;94611.20;1644865;85;21614;-49
2022/02/03 21:22:40;;;;;;;149.18;67.08;;;;;;;-4.23;61.58;94613.82;1657374;85;21767;-48
2022/02/03 21:25:23;;;;;;;163.90;71.55;;;;;;;-4.17;61.61;94613.17;1656331;84;21158;-50
2022/02/03 21:27:45;;;;;;;171.20;78.22;;;;;;;-4.05;61.74;94620.27;1648666;85;20972;-49